createdAt,value
2017-08-28T00:00:03.789Z,15.82
2017-08-28T00:01:18.413Z,15.92
2017-08-28T00:02:03.820Z,15.89
2017-08-28T00:03:03.866Z,15.82
2017-08-28T00:04:03.885Z,15.83
2017-08-28T00:05:03.905Z,15.86
2017-08-28T00:06:03.936Z,15.89
2017-08-28T00:07:03.966Z,15.87
2017-08-28T00:09:18.606Z,15.86
2017-08-28T00:10:04.015Z,15.86
2017-08-28T00:11:04.062Z,15.82
2017-08-28T00:12:03.754Z,15.87
2017-08-28T00:13:04.093Z,15.83
2017-08-28T00:14:03.801Z,15.86
2017-08-28T00:15:04.149Z,15.84
2017-08-28T00:16:18.776Z,15.89
2017-08-28T00:17:04.196Z,15.92
2017-08-28T00:18:04.254Z,15.83
2017-08-28T00:19:04.237Z,15.89
2017-08-28T00:20:18.869Z,15.82
2017-08-28T00:21:04.282Z,15.86
2017-08-28T00:22:04.305Z,15.84
2017-08-28T00:23:04.021Z,15.8
2017-08-28T00:24:04.350Z,15.84
2017-08-28T00:25:04.389Z,15.74
2017-08-28T00:26:19.005Z,15.69
2017-08-28T00:27:04.440Z,15.68
2017-08-28T00:28:04.447Z,15.71
2017-08-28T00:29:04.468Z,15.6
2017-08-28T00:30:04.514Z,15.54
2017-08-28T00:31:04.211Z,15.62
2017-08-28T00:32:19.156Z,15.57
2017-08-28T00:33:04.561Z,15.59
2017-08-28T00:34:04.601Z,15.59
2017-08-28T00:35:04.303Z,15.46
2017-08-28T00:36:04.648Z,15.47
2017-08-28T00:37:04.676Z,15.51
2017-08-28T00:38:04.684Z,15.49
2017-08-28T00:40:04.745Z,15.41
2017-08-28T00:41:04.763Z,15.46
2017-08-28T00:42:04.783Z,15.54
2017-08-28T00:44:04.834Z,15.56
2017-08-28T00:45:04.859Z,15.62
2017-08-28T00:46:04.561Z,15.56
2017-08-28T00:47:04.899Z,15.59
2017-08-28T00:48:19.514Z,15.64
2017-08-28T00:49:04.948Z,15.54
2017-08-28T00:50:04.962Z,15.67
2017-08-28T00:51:04.994Z,15.64
2017-08-28T00:52:05.027Z,15.59
2017-08-28T00:53:05.031Z,15.57
2017-08-28T00:54:05.072Z,15.57
2017-08-28T00:55:05.088Z,15.6
2017-08-28T00:56:19.712Z,15.54
2017-08-28T00:57:05.117Z,15.51
2017-08-28T00:58:05.158Z,15.59
2017-08-28T01:01:05.237Z,15.5
2017-08-28T01:02:05.238Z,15.53
2017-08-28T01:03:05.296Z,15.49
2017-08-28T01:06:05.341Z,15.46
2017-08-28T01:07:05.398Z,15.44
2017-08-28T01:08:05.394Z,15.41
2017-08-28T01:09:20.019Z,15.32
2017-08-28T01:10:05.440Z,15.35
2017-08-28T01:11:05.143Z,15.41
2017-08-28T01:12:05.496Z,15.38
2017-08-28T01:13:05.499Z,15.43
2017-08-28T01:14:05.548Z,15.38
2017-08-28T01:15:05.237Z,15.44
2017-08-28T01:16:05.573Z,15.31
2017-08-28T01:17:05.597Z,15.35
2017-08-28T01:18:05.308Z,15.34
2017-08-28T01:19:05.644Z,15.28
2017-08-28T01:20:20.260Z,15.28
2017-08-28T01:21:05.706Z,15.28
2017-08-28T01:22:05.723Z,15.29
2017-08-28T01:23:05.759Z,15.23
2017-08-28T01:24:05.763Z,15.21
2017-08-28T01:25:05.483Z,15.25
2017-08-28T01:26:05.815Z,15.25
2017-08-28T01:27:05.849Z,15.2
2017-08-28T01:28:05.557Z,15.17
2017-08-28T01:29:05.557Z,15.25
2017-08-28T01:30:05.911Z,15.21
2017-08-28T01:31:05.938Z,15.2
2017-08-28T01:32:05.935Z,15.19
2017-08-28T01:33:05.987Z,15.14
2017-08-28T01:34:05.984Z,15.13
2017-08-28T01:35:05.390Z,15.11
2017-08-28T01:36:20.331Z,15.09
2017-08-28T01:37:06.072Z,15.1
2017-08-28T01:38:06.109Z,15.1
2017-08-28T01:39:06.116Z,15.11
2017-08-28T01:41:05.836Z,15.09
2017-08-28T01:42:06.197Z,14.99
2017-08-28T01:44:06.236Z,15.1
2017-08-28T01:45:06.239Z,15.01
2017-08-28T01:46:05.655Z,15.09
2017-08-28T01:47:20.898Z,15.01
2017-08-28T01:48:06.324Z,14.99
2017-08-28T01:50:06.358Z,14.94
2017-08-28T01:51:21.195Z,14.86
2017-08-28T01:52:06.094Z,14.99
2017-08-28T01:53:06.442Z,15.01
2017-08-28T01:55:06.492Z,15.01
2017-08-28T01:56:06.519Z,14.96
2017-08-28T01:57:06.532Z,14.99
2017-08-28T01:58:06.548Z,14.95
2017-08-28T01:59:06.588Z,15.01
2017-08-28T02:00:06.609Z,15.01
2017-08-28T02:02:21.251Z,15.02
2017-08-28T02:03:06.348Z,15.03
2017-08-28T02:04:06.700Z,14.89
2017-08-28T02:05:06.714Z,14.84
2017-08-28T02:06:21.355Z,14.78
2017-08-28T02:07:06.458Z,14.72
2017-08-28T02:08:06.472Z,14.81
2017-08-28T02:09:06.822Z,14.77
2017-08-28T02:10:06.508Z,14.75
2017-08-28T02:11:21.463Z,14.75
2017-08-28T02:12:06.561Z,14.73
2017-08-28T02:13:06.912Z,14.8
2017-08-28T02:14:06.933Z,14.73
2017-08-28T02:15:06.958Z,14.73
2017-08-28T02:16:06.662Z,14.77
2017-08-28T02:18:06.704Z,14.73
2017-08-28T02:19:07.053Z,14.78
2017-08-28T02:20:07.082Z,14.73
2017-08-28T02:21:06.763Z,14.68
2017-08-28T02:24:07.155Z,14.65
2017-08-28T02:25:06.871Z,14.7
2017-08-28T02:26:07.207Z,14.61
2017-08-28T02:27:07.232Z,14.68
2017-08-28T02:28:06.936Z,14.58
2017-08-28T02:29:07.278Z,14.6
2017-08-28T02:30:07.296Z,14.68
2017-08-28T02:31:07.320Z,14.69
2017-08-28T02:32:07.353Z,14.61
2017-08-28T02:33:07.371Z,14.61
2017-08-28T02:34:07.383Z,14.51
2017-08-28T02:35:07.412Z,14.62
2017-08-28T02:36:07.126Z,14.5
2017-08-28T02:37:07.461Z,14.62
2017-08-28T02:38:07.166Z,14.6
2017-08-28T02:39:22.108Z,14.65
2017-08-28T02:40:07.208Z,14.61
2017-08-28T02:41:07.562Z,14.58
2017-08-28T02:42:07.256Z,14.62
2017-08-28T02:43:07.291Z,14.58
2017-08-28T02:44:07.311Z,14.52
2017-08-28T02:45:21.924Z,14.61
2017-08-28T02:46:07.334Z,14.57
2017-08-28T02:47:07.670Z,14.62
2017-08-28T02:48:07.735Z,14.46
2017-08-28T02:49:07.742Z,14.6
2017-08-28T02:50:07.445Z,14.51
2017-08-28T02:51:07.779Z,14.62
2017-08-28T02:52:07.810Z,14.55
2017-08-28T02:53:07.823Z,14.61
2017-08-28T02:54:07.849Z,14.52
2017-08-28T02:55:22.475Z,14.52
2017-08-28T02:56:07.571Z,14.47
2017-08-28T02:57:07.592Z,14.5
2017-08-28T02:58:07.630Z,14.47
2017-08-28T02:59:07.975Z,14.51
2017-08-28T03:00:07.991Z,14.54
2017-08-28T03:01:08.013Z,14.58
2017-08-28T03:02:07.719Z,14.51
2017-08-28T03:03:08.054Z,14.5
2017-08-28T03:04:07.764Z,14.35
2017-08-28T03:05:22.429Z,14.18
2017-08-28T03:06:08.130Z,14.18
2017-08-28T03:07:08.152Z,14.2
2017-08-28T03:08:07.849Z,14.12
2017-08-28T03:09:08.191Z,14.1
2017-08-28T03:10:08.215Z,14.02
2017-08-28T03:11:22.842Z,13.92
2017-08-28T03:12:07.932Z,14.04
2017-08-28T03:13:08.289Z,14.02
2017-08-28T03:14:08.315Z,13.95
2017-08-28T03:15:08.336Z,13.96
2017-08-28T03:16:08.034Z,13.97
2017-08-28T03:17:08.368Z,13.95
2017-08-28T03:18:23.003Z,13.89
2017-08-28T03:19:08.424Z,13.95
2017-08-28T03:20:23.043Z,13.96
2017-08-28T03:21:08.453Z,13.96
2017-08-28T03:22:08.502Z,13.97
2017-08-28T03:23:08.501Z,13.95
2017-08-28T03:24:08.550Z,13.97
2017-08-28T03:25:08.553Z,13.97
2017-08-28T03:26:23.181Z,13.92
2017-08-28T03:27:08.594Z,13.95
2017-08-28T03:28:08.627Z,13.99
2017-08-28T03:29:22.935Z,13.95
2017-08-28T03:30:08.679Z,13.97
2017-08-28T03:31:08.705Z,13.91
2017-08-28T03:32:23.001Z,13.87
2017-08-28T03:33:08.443Z,13.88
2017-08-28T03:34:08.453Z,13.91
2017-08-28T03:35:08.795Z,13.77
2017-08-28T03:36:08.820Z,13.73
2017-08-28T03:37:08.833Z,13.77
2017-08-28T03:38:08.846Z,13.81
2017-08-28T03:39:08.250Z,13.85
2017-08-28T03:40:08.586Z,13.95
2017-08-28T03:41:08.931Z,13.89
2017-08-28T03:42:08.315Z,13.91
2017-08-28T03:43:08.335Z,13.91
2017-08-28T03:44:08.358Z,13.89
2017-08-28T03:45:08.703Z,13.77
2017-08-28T03:46:08.713Z,13.75
2017-08-28T03:47:08.753Z,13.75
2017-08-28T03:48:23.365Z,13.67
2017-08-28T03:49:08.791Z,13.79
2017-08-28T03:50:08.815Z,13.79
2017-08-28T03:51:09.157Z,13.85
2017-08-28T03:52:09.162Z,13.73
2017-08-28T03:53:08.887Z,13.75
2017-08-28T03:54:09.210Z,13.75
2017-08-28T03:55:09.253Z,13.88
2017-08-28T03:56:09.272Z,13.88
2017-08-28T03:57:09.303Z,13.92
2017-08-28T03:58:23.915Z,13.91
2017-08-28T03:59:09.331Z,13.89
2017-08-28T04:00:08.714Z,13.92
2017-08-28T04:01:09.059Z,13.91
2017-08-28T04:02:09.085Z,13.92
2017-08-28T04:03:09.401Z,13.95
2017-08-28T04:04:24.244Z,13.96
2017-08-28T04:05:09.152Z,13.89
2017-08-28T04:06:09.784Z,13.96
2017-08-28T04:07:09.809Z,13.88
2017-08-28T04:09:09.563Z,13.97
2017-08-28T04:10:09.577Z,13.96
2017-08-28T04:11:09.606Z,13.92
2017-08-28T04:12:09.311Z,13.97
2017-08-28T04:13:09.341Z,13.97
2017-08-28T04:14:24.271Z,13.91
2017-08-28T04:15:24.309Z,13.96
2017-08-28T04:16:09.392Z,13.85
2017-08-28T04:17:09.425Z,13.92
2017-08-28T04:18:09.754Z,13.92
2017-08-28T04:19:09.784Z,13.95
2017-08-28T04:20:09.802Z,13.89
2017-08-28T04:21:09.837Z,14.02
2017-08-28T04:22:09.867Z,13.97
2017-08-28T04:23:09.880Z,13.96
2017-08-28T04:24:09.895Z,13.97
2017-08-28T04:25:09.918Z,14.04
2017-08-28T04:26:24.541Z,13.99
2017-08-28T04:27:09.952Z,13.92
2017-08-28T04:28:10.004Z,13.92
2017-08-28T04:30:24.632Z,14.06
2017-08-28T04:31:10.053Z,14.06
2017-08-28T04:32:10.067Z,14.09
2017-08-28T04:33:10.115Z,14.04
2017-08-28T04:34:24.411Z,14.14
2017-08-28T04:35:10.152Z,14.09
2017-08-28T04:36:09.536Z,14.14
2017-08-28T04:37:09.877Z,14.03
2017-08-28T04:38:09.888Z,14.1
2017-08-28T04:39:10.260Z,14.22
2017-08-28T04:40:09.947Z,14.09
2017-08-28T04:41:09.970Z,14.12
2017-08-28T04:42:09.984Z,14.17
2017-08-28T04:43:10.027Z,14.2
2017-08-28T04:44:10.039Z,14.2
2017-08-28T04:45:10.386Z,14.32
2017-08-28T04:46:25.005Z,14.42
2017-08-28T04:47:10.118Z,14.52
2017-08-28T04:48:10.125Z,14.81
2017-08-28T04:49:10.464Z,15.07
2017-08-28T04:50:10.166Z,15.29
2017-08-28T04:51:10.513Z,15.27
2017-08-28T04:53:10.558Z,15.54
2017-08-28T04:54:10.592Z,15.87
2017-08-28T04:55:10.634Z,16.23
2017-08-28T04:56:10.312Z,16.41
2017-08-28T04:57:10.341Z,16.7
2017-08-28T04:58:10.682Z,17.03
2017-08-28T04:59:10.710Z,17.25
2017-08-28T05:00:10.721Z,17.58
2017-08-28T05:01:25.359Z,18.02
2017-08-28T05:02:10.441Z,18.15
2017-08-28T05:03:10.802Z,18.37
2017-08-28T05:04:10.832Z,18.66
2017-08-28T05:05:10.852Z,18.75
2017-08-28T05:06:10.563Z,18.84
2017-08-28T05:07:10.910Z,19.16
2017-08-28T05:08:10.929Z,19.36
2017-08-28T05:09:10.966Z,19.55
2017-08-28T05:10:25.575Z,19.65
2017-08-28T05:11:25.602Z,19.8
2017-08-28T05:13:10.731Z,20.18
2017-08-28T05:14:11.077Z,20.28
2017-08-28T05:15:11.096Z,20.36
2017-08-28T05:16:11.148Z,20.23
2017-08-28T05:17:11.154Z,20.08
2017-08-28T05:18:25.795Z,19.63
2017-08-28T05:19:10.891Z,19.26
2017-08-28T05:20:11.242Z,19.14
2017-08-28T05:21:11.260Z,18.84
2017-08-28T05:22:11.302Z,18.72
2017-08-28T05:23:11.325Z,18.54
2017-08-28T05:24:11.343Z,18.37
2017-08-28T05:25:11.375Z,18.44
2017-08-28T05:26:11.389Z,18.41
2017-08-28T05:27:11.423Z,18.47
2017-08-28T05:28:11.441Z,18.32
2017-08-28T05:29:11.479Z,18.32
2017-08-28T05:30:11.511Z,18.27
2017-08-28T05:31:11.533Z,18.15
2017-08-28T05:32:11.556Z,18.1
2017-08-28T05:33:26.171Z,17.92
2017-08-28T05:34:11.617Z,17.86
2017-08-28T05:35:11.631Z,17.86
2017-08-28T05:36:11.667Z,17.74
2017-08-28T05:37:11.676Z,17.71
2017-08-28T05:38:11.688Z,17.79
2017-08-28T05:39:11.747Z,17.96
2017-08-28T05:40:11.760Z,18.08
2017-08-28T05:41:11.764Z,18.15
2017-08-28T05:42:26.402Z,18.26
2017-08-28T05:43:11.825Z,18.26
2017-08-28T05:44:11.542Z,18.36
2017-08-28T05:45:11.871Z,18.47
2017-08-28T05:46:11.912Z,18.37
2017-08-28T05:47:11.933Z,18.48
2017-08-28T05:48:11.686Z,18.47
2017-08-28T05:49:26.253Z,18.67
2017-08-28T05:50:12.011Z,18.92
2017-08-28T05:51:26.638Z,19.48
2017-08-28T05:52:12.060Z,19.92
2017-08-28T05:53:11.770Z,20.39
2017-08-28T05:54:12.108Z,20.95
2017-08-28T05:55:26.732Z,21.35
2017-08-28T05:56:12.164Z,21.37
2017-08-28T05:57:12.178Z,21.64
2017-08-28T05:58:12.222Z,21.92
2017-08-28T05:59:12.235Z,22
2017-08-28T06:00:12.317Z,22.27
2017-08-28T06:01:11.973Z,22.06
2017-08-28T06:03:12.350Z,22.51
2017-08-28T06:04:11.755Z,22.7
2017-08-28T06:05:27.007Z,22.97
2017-08-28T06:06:12.427Z,23.04
2017-08-28T06:07:12.470Z,23.02
2017-08-28T06:08:12.486Z,23.27
2017-08-28T06:09:12.257Z,23.51
2017-08-28T06:10:12.245Z,23.76
2017-08-28T06:11:12.589Z,24.09
2017-08-28T06:12:12.615Z,24.12
2017-08-28T06:13:12.650Z,24.22
2017-08-28T06:14:12.668Z,24.13
2017-08-28T06:15:12.723Z,24.13
2017-08-28T06:16:12.740Z,24.21
2017-08-28T06:17:12.796Z,24.1
2017-08-28T06:18:12.809Z,24.18
2017-08-28T06:19:12.852Z,24.42
2017-08-28T06:20:12.565Z,24.21
2017-08-28T06:21:27.502Z,24.02
2017-08-28T06:22:12.943Z,24.25
2017-08-28T06:23:12.654Z,24.52
2017-08-28T06:24:13.001Z,24.67
2017-08-28T06:25:13.040Z,25.15
2017-08-28T06:26:12.749Z,24.88
2017-08-28T06:28:12.505Z,24.67
2017-08-28T06:29:13.182Z,24.37
2017-08-28T06:30:13.203Z,24.31
2017-08-28T06:31:13.247Z,24.43
2017-08-28T06:32:13.278Z,24.6
2017-08-28T06:33:12.987Z,25.03
2017-08-28T06:34:13.034Z,25.33
2017-08-28T06:35:13.380Z,25.46
2017-08-28T06:36:27.999Z,24.77
2017-08-28T06:37:13.470Z,24.8
2017-08-28T06:39:13.499Z,25.24
2017-08-28T06:40:13.591Z,25.55
2017-08-28T06:41:13.582Z,26.1
2017-08-28T06:42:13.666Z,26.1
2017-08-28T06:43:13.629Z,26.29
2017-08-28T06:44:13.363Z,26.35
2017-08-28T06:45:13.697Z,26.72
2017-08-28T06:46:13.434Z,26.69
2017-08-28T06:47:13.828Z,26.47
2017-08-28T06:48:13.509Z,26.77
2017-08-28T06:50:13.871Z,27.04
2017-08-28T06:51:13.599Z,26.99
2017-08-28T06:53:13.680Z,26.87
2017-08-28T06:54:14.012Z,26.4
2017-08-28T06:55:14.071Z,26.37
2017-08-28T06:56:13.776Z,26.48
2017-08-28T06:57:14.139Z,26.43
2017-08-28T06:58:14.160Z,26.65
2017-08-28T06:59:14.504Z,26.32
2017-08-28T07:00:14.240Z,26.54
2017-08-28T07:01:13.960Z,26.76
2017-08-28T07:02:28.912Z,26.95
2017-08-28T07:03:14.354Z,27.27
2017-08-28T07:04:14.411Z,27.66
2017-08-28T07:05:14.424Z,27.66
2017-08-28T07:06:14.460Z,26.82
2017-08-28T07:07:14.487Z,26.54
2017-08-28T07:08:29.126Z,25.65
2017-08-28T07:09:14.545Z,25.98
2017-08-28T07:10:14.609Z,26.44
2017-08-28T07:11:14.629Z,26.73
2017-08-28T07:12:14.655Z,26.89
2017-08-28T07:13:14.704Z,27.32
2017-08-28T07:14:29.344Z,27.37
2017-08-28T07:15:29.379Z,27.77
2017-08-28T07:16:14.839Z,27.67
2017-08-28T07:17:14.835Z,26.99
2017-08-28T07:18:29.483Z,26.4
2017-08-28T07:19:29.514Z,26.44
2017-08-28T07:20:14.944Z,26.7
2017-08-28T07:21:29.589Z,27.1
2017-08-28T07:22:15.028Z,27.43
2017-08-28T07:23:15.063Z,27.24
2017-08-28T07:24:29.698Z,26.94
2017-08-28T07:25:29.724Z,27.06
2017-08-28T07:26:15.168Z,27.17
2017-08-28T07:27:14.890Z,27.28
2017-08-28T07:28:15.231Z,27.7
2017-08-28T07:29:14.699Z,27.74
2017-08-28T07:30:15.301Z,27.5
2017-08-28T07:31:29.953Z,27.62
2017-08-28T07:32:15.379Z,27.5
2017-08-28T07:33:15.100Z,27.88
2017-08-28T07:34:15.466Z,28.31
2017-08-28T07:35:15.483Z,28.56
2017-08-28T07:36:15.540Z,28.78
2017-08-28T07:37:15.749Z,28.76
2017-08-28T07:38:15.610Z,28.71
2017-08-28T07:39:15.642Z,28.49
2017-08-28T07:40:30.279Z,28.61
2017-08-28T07:41:15.719Z,29.18
2017-08-28T07:42:15.726Z,29.3
2017-08-28T07:43:15.776Z,29.49
2017-08-28T07:44:15.829Z,29.23
2017-08-28T07:45:15.857Z,28.11
2017-08-28T07:46:15.560Z,27.31
2017-08-28T07:47:15.605Z,27.43
2017-08-28T07:48:15.961Z,27.62
2017-08-28T07:49:16.001Z,27.92
2017-08-28T07:50:16.022Z,28.49
2017-08-28T07:51:16.058Z,28.61
2017-08-28T07:52:15.798Z,28.61
2017-08-28T07:53:16.140Z,29.33
2017-08-28T07:54:16.176Z,29.16
2017-08-28T07:55:15.910Z,29.26
2017-08-28T07:56:30.841Z,29.52
2017-08-28T07:57:15.973Z,29.74
2017-08-28T07:58:16.003Z,29.76
2017-08-28T07:59:16.044Z,29.42
2017-08-28T08:00:30.683Z,29.42
2017-08-28T08:01:16.107Z,29.37
2017-08-28T08:02:31.070Z,29.76
2017-08-28T08:03:16.229Z,29.98
2017-08-28T08:04:16.544Z,30.04
2017-08-28T08:05:16.567Z,30.1
2017-08-28T08:06:16.620Z,29.46
2017-08-28T08:07:16.323Z,29.33
2017-08-28T08:08:16.680Z,29.45
2017-08-28T08:09:16.724Z,29.74
2017-08-28T08:10:16.770Z,30.15
2017-08-28T08:11:31.075Z,30.08
2017-08-28T08:12:16.836Z,30.32
2017-08-28T08:13:16.553Z,30.22
2017-08-28T08:14:16.572Z,30.53
2017-08-28T08:15:16.929Z,30.55
2017-08-28T08:16:16.966Z,30.64
2017-08-28T08:17:17.013Z,30.92
2017-08-28T08:18:17.049Z,30.77
2017-08-28T08:19:31.683Z,30.91
2017-08-28T08:20:17.109Z,31.04
2017-08-28T08:21:17.155Z,31.19
2017-08-28T08:22:17.179Z,30.73
2017-08-28T08:23:17.233Z,30.23
2017-08-28T08:24:17.258Z,29.97
2017-08-28T08:25:17.282Z,29.42
2017-08-28T08:26:17.326Z,29.14
2017-08-28T08:27:17.309Z,29.04
2017-08-28T08:28:17.405Z,28.78
2017-08-28T08:29:17.126Z,28.73
2017-08-28T08:30:17.137Z,28.43
2017-08-28T08:31:17.498Z,27.78
2017-08-28T08:32:17.542Z,27.7
2017-08-28T08:33:17.568Z,27.24
2017-08-28T08:34:17.610Z,26.67
2017-08-28T08:35:17.327Z,26.73
2017-08-28T08:36:17.677Z,27.28
2017-08-28T08:37:17.697Z,27.22
2017-08-28T08:38:17.425Z,27.28
2017-08-28T08:39:17.790Z,27.66
2017-08-28T08:40:17.824Z,28.36
2017-08-28T08:41:17.854Z,28.71
2017-08-28T08:42:17.884Z,29.04
2017-08-28T08:43:32.188Z,29.43
2017-08-28T08:45:17.992Z,28.71
2017-08-28T08:46:18.051Z,28.34
2017-08-28T08:47:18.053Z,28.9
2017-08-28T08:48:18.066Z,28.95
2017-08-28T08:49:18.116Z,29.42
2017-08-28T08:50:18.153Z,29.8
2017-08-28T08:51:18.184Z,29.31
2017-08-28T08:52:18.211Z,28.59
2017-08-28T08:53:18.251Z,28.06
2017-08-28T08:54:18.278Z,27.66
2017-08-28T08:55:18.313Z,27.22
2017-08-28T08:56:18.332Z,26.48
2017-08-28T08:57:18.397Z,26.06
2017-08-28T08:58:18.095Z,25.62
2017-08-28T08:59:33.048Z,25.5
2017-08-28T09:00:18.165Z,25.64
2017-08-28T09:01:18.502Z,26.01
2017-08-28T09:02:18.238Z,26.1
2017-08-28T09:03:18.576Z,25.72
2017-08-28T09:04:18.610Z,25.58
2017-08-28T09:05:18.646Z,25.39
2017-08-28T09:06:18.679Z,25.2
2017-08-28T09:07:18.713Z,25.23
2017-08-28T09:08:18.742Z,25.23
2017-08-28T09:09:18.776Z,25.45
2017-08-28T09:10:18.487Z,25.58
2017-08-28T09:11:18.851Z,25.64
2017-08-28T09:12:18.843Z,25.64
2017-08-28T09:13:18.913Z,25.45
2017-08-28T09:14:18.591Z,25.62
2017-08-28T09:15:33.558Z,25.32
2017-08-28T09:16:18.983Z,25.62
2017-08-28T09:17:19.032Z,26.07
2017-08-28T09:18:19.045Z,26.44
2017-08-28T09:19:18.770Z,26.77
2017-08-28T09:20:18.782Z,27.39
2017-08-28T09:21:19.150Z,27.82
2017-08-28T09:22:19.162Z,28.21
2017-08-28T09:23:19.250Z,28.25
2017-08-28T09:24:19.233Z,28.33
2017-08-28T09:25:18.945Z,28.49
2017-08-28T09:26:19.312Z,28.46
2017-08-28T09:27:19.338Z,28.49
2017-08-28T09:28:19.055Z,28.51
2017-08-28T09:29:19.393Z,28.88
2017-08-28T09:31:34.064Z,29.55
2017-08-28T09:32:19.490Z,30.13
2017-08-28T09:33:19.217Z,30.6
2017-08-28T09:34:19.559Z,31.04
2017-08-28T09:35:19.593Z,30.94
2017-08-28T09:36:19.608Z,30.73
2017-08-28T09:37:19.660Z,30.92
2017-08-28T09:38:19.370Z,31.01
2017-08-28T09:39:19.712Z,31.02
2017-08-28T09:40:19.433Z,30.94
2017-08-28T09:41:19.473Z,30.53
2017-08-28T09:42:19.496Z,30.32
2017-08-28T09:43:19.530Z,29.8
2017-08-28T09:44:19.866Z,29.08
2017-08-28T09:45:19.925Z,28.73
2017-08-28T09:47:19.968Z,28.03
2017-08-28T09:48:20.018Z,27.84
2017-08-28T09:50:19.770Z,27.63
2017-08-28T09:51:19.776Z,27.54
2017-08-28T09:52:34.430Z,28
2017-08-28T09:53:19.867Z,27.97
2017-08-28T09:54:20.193Z,27.85
2017-08-28T09:55:34.523Z,27.36
2017-08-28T09:56:20.273Z,27.18
2017-08-28T09:57:20.304Z,27.12
2017-08-28T09:58:20.327Z,27.04
2017-08-28T09:59:20.055Z,27.36
2017-08-28T10:00:20.122Z,27.32
2017-08-28T10:01:20.425Z,26.7
2017-08-28T10:02:20.457Z,26.26
2017-08-28T10:03:20.500Z,26.07
2017-08-28T10:04:34.813Z,26.2
2017-08-28T10:05:20.558Z,26.17
2017-08-28T10:06:20.281Z,26.02
2017-08-28T10:07:20.618Z,25.95
2017-08-28T10:08:20.335Z,25.82
2017-08-28T10:09:20.662Z,25.91
2017-08-28T10:10:20.400Z,25.82
2017-08-28T10:11:20.418Z,25.67
2017-08-28T10:12:35.370Z,25.61
2017-08-28T10:13:20.807Z,25.46
2017-08-28T10:14:20.842Z,25.17
2017-08-28T10:15:20.226Z,24.81
2017-08-28T10:16:20.585Z,24.81
2017-08-28T10:17:20.915Z,24.57
2017-08-28T10:18:35.556Z,24.4
2017-08-28T10:19:20.666Z,24.4
2017-08-28T10:20:21.013Z,24.52
2017-08-28T10:21:21.094Z,24.71
2017-08-28T10:22:21.075Z,24.84
2017-08-28T10:23:21.112Z,24.9
2017-08-28T10:24:21.130Z,25.17
2017-08-28T10:25:35.761Z,25.23
2017-08-28T10:26:21.194Z,25.2
2017-08-28T10:27:21.221Z,25.17
2017-08-28T10:28:21.247Z,24.77
2017-08-28T10:29:21.282Z,24.77
2017-08-28T10:30:21.317Z,24.91
2017-08-28T10:31:21.340Z,24.93
2017-08-28T10:32:21.048Z,25.08
2017-08-28T10:33:21.391Z,25.23
2017-08-28T10:34:36.025Z,25.06
2017-08-28T10:35:36.058Z,25.18
2017-08-28T10:36:35.818Z,25.25
2017-08-28T10:37:36.102Z,25.08
2017-08-28T10:38:21.224Z,25.15
2017-08-28T10:40:21.609Z,25.32
2017-08-28T10:41:21.298Z,25.06
2017-08-28T10:42:21.660Z,25.17
2017-08-28T10:43:21.689Z,25.38
2017-08-28T10:44:21.714Z,25.45
2017-08-28T10:45:21.743Z,25.33
2017-08-28T10:46:21.780Z,25.42
2017-08-28T10:47:21.813Z,25.57
2017-08-28T10:48:21.821Z,25.6
2017-08-28T10:49:21.857Z,25.7
2017-08-28T10:50:36.493Z,25.65
2017-08-28T10:51:21.917Z,25.75
2017-08-28T10:52:21.951Z,25.7
2017-08-28T10:53:21.960Z,25.69
2017-08-28T10:54:22.005Z,25.88
2017-08-28T10:55:22.018Z,25.79
2017-08-28T10:56:22.067Z,25.85
2017-08-28T10:57:22.094Z,26.1
2017-08-28T10:58:22.129Z,26.07
2017-08-28T11:00:22.155Z,26.32
2017-08-28T11:01:22.205Z,26.44
2017-08-28T11:02:22.216Z,26.32
2017-08-28T11:03:22.269Z,26.05
2017-08-28T11:05:22.332Z,26.2
2017-08-28T11:06:36.951Z,25.8
2017-08-28T11:07:22.399Z,25.58
2017-08-28T11:08:22.397Z,25.45
2017-08-28T11:09:22.418Z,25.21
2017-08-28T11:10:22.445Z,25.27
2017-08-28T11:11:22.495Z,25.1
2017-08-28T11:12:22.516Z,24.96
2017-08-28T11:13:22.564Z,24.9
2017-08-28T11:14:22.559Z,24.84
2017-08-28T11:15:37.204Z,24.52
2017-08-28T11:16:22.629Z,24.34
2017-08-28T11:17:22.660Z,24.57
2017-08-28T11:18:22.692Z,24.49
2017-08-28T11:19:22.397Z,24.13
2017-08-28T11:20:22.761Z,24.28
2017-08-28T11:21:37.377Z,24.37
2017-08-28T11:22:22.817Z,24.42
2017-08-28T11:23:22.820Z,24.43
2017-08-28T11:24:22.538Z,24.25
2017-08-28T11:25:22.880Z,24.4
2017-08-28T11:26:22.292Z,24.34
2017-08-28T11:27:22.317Z,24.45
2017-08-28T11:28:22.967Z,24.47
2017-08-28T11:29:22.699Z,24.67
2017-08-28T11:30:23.032Z,24.65
2017-08-28T11:31:23.051Z,24.68
2017-08-28T11:33:23.113Z,24.55
2017-08-28T11:34:37.737Z,24.57
2017-08-28T11:35:22.860Z,24.67
2017-08-28T11:36:23.198Z,24.93
2017-08-28T11:37:23.228Z,25
2017-08-28T11:38:22.938Z,25
2017-08-28T11:39:23.307Z,24.8
2017-08-28T11:40:23.299Z,24.77
2017-08-28T11:42:23.354Z,25.05
2017-08-28T11:44:22.797Z,24.77
2017-08-28T11:45:23.123Z,24.67
2017-08-28T11:46:23.473Z,24.71
2017-08-28T11:47:23.193Z,24.61
2017-08-28T11:48:23.541Z,24.43
2017-08-28T11:49:23.565Z,24.27
2017-08-28T11:50:23.606Z,24.22
2017-08-28T11:51:23.615Z,24.16
2017-08-28T11:52:23.657Z,24.34
2017-08-28T11:53:38.260Z,24.42
2017-08-28T11:54:38.294Z,24.43
2017-08-28T11:55:23.776Z,24.25
2017-08-28T11:56:23.441Z,24.39
2017-08-28T11:58:23.856Z,24.27
2017-08-28T11:59:23.835Z,24.27
2017-08-28T12:00:23.871Z,24.12
2017-08-28T12:02:38.522Z,23.95
2017-08-28T12:03:38.555Z,23.94
2017-08-28T12:04:38.577Z,24.02
2017-08-28T12:05:24.002Z,24
2017-08-28T12:06:24.043Z,24.16
2017-08-28T12:07:24.078Z,24.12
2017-08-28T12:08:24.101Z,24.08
2017-08-28T12:09:38.709Z,23.98
2017-08-28T12:10:24.158Z,23.93
2017-08-28T12:11:24.179Z,24.05
2017-08-28T12:12:23.880Z,24
2017-08-28T12:13:24.219Z,23.98
2017-08-28T12:14:24.266Z,23.98
2017-08-28T12:15:24.298Z,23.94
2017-08-28T12:16:24.320Z,23.83
2017-08-28T12:17:24.026Z,23.68
2017-08-28T12:18:24.368Z,23.75
2017-08-28T12:19:24.400Z,23.69
2017-08-28T12:20:24.411Z,23.7
2017-08-28T12:21:24.137Z,23.75
2017-08-28T12:22:24.149Z,23.73
2017-08-28T12:23:24.512Z,23.79
2017-08-28T12:24:24.535Z,23.79
2017-08-28T12:25:39.156Z,23.87
2017-08-28T12:26:39.178Z,23.8
2017-08-28T12:27:24.303Z,23.65
2017-08-28T12:28:24.629Z,23.83
2017-08-28T12:29:24.664Z,23.83
2017-08-28T12:30:24.372Z,23.88
2017-08-28T12:31:24.729Z,23.91
2017-08-28T12:33:39.380Z,23.72
2017-08-28T12:34:24.811Z,23.6
2017-08-28T12:35:24.821Z,23.68
2017-08-28T12:36:24.860Z,23.73
2017-08-28T12:37:24.886Z,23.76
2017-08-28T12:39:24.633Z,24.02
2017-08-28T12:40:24.963Z,24.02
2017-08-28T12:41:39.282Z,24.18
2017-08-28T12:42:25.020Z,24.24
2017-08-28T12:43:25.044Z,24.28
2017-08-28T12:44:24.760Z,24.28
2017-08-28T12:45:24.790Z,24.2
2017-08-28T12:46:25.133Z,24.24
2017-08-28T12:47:25.158Z,24.39
2017-08-28T12:48:25.187Z,24.52
2017-08-28T12:49:24.570Z,24.46
2017-08-28T12:50:25.250Z,24.53
2017-08-28T12:51:25.264Z,24.58
2017-08-28T12:52:25.305Z,24.64
2017-08-28T12:53:25.324Z,24.58
2017-08-28T12:55:25.389Z,24.85
2017-08-28T12:56:40.016Z,24.98
2017-08-28T12:57:25.421Z,25.08
2017-08-28T12:58:25.476Z,25.27
2017-08-28T12:59:25.495Z,25.17
2017-08-28T13:00:25.518Z,25.21
2017-08-28T13:01:25.540Z,25.06
2017-08-28T13:02:25.585Z,25
2017-08-28T13:04:25.675Z,24.61
2017-08-28T13:05:25.344Z,24.58
2017-08-28T13:06:40.281Z,24.77
2017-08-28T13:07:25.705Z,24.71
2017-08-28T13:08:25.738Z,24.6
2017-08-28T13:09:25.138Z,24.67
2017-08-28T13:10:25.795Z,24.55
2017-08-28T13:11:25.823Z,24.5
2017-08-28T13:12:25.846Z,24.49
2017-08-28T13:13:25.869Z,24.37
2017-08-28T13:14:40.241Z,24.4
2017-08-28T13:15:25.927Z,24.39
2017-08-28T13:16:25.958Z,24.34
2017-08-28T13:17:25.981Z,24.37
2017-08-28T13:18:26.008Z,24.42
2017-08-28T13:19:40.645Z,24.4
2017-08-28T13:20:40.672Z,24.37
2017-08-28T13:21:26.084Z,24.3
2017-08-28T13:22:25.808Z,24.49
2017-08-28T13:23:26.138Z,24.45
2017-08-28T13:24:40.825Z,24.37
2017-08-28T13:26:40.842Z,24.34
2017-08-28T13:27:26.271Z,24.32
2017-08-28T13:28:40.892Z,24.15
2017-08-28T13:30:26.075Z,24.06
2017-08-28T13:31:26.368Z,23.94
2017-08-28T13:32:26.403Z,23.85
2017-08-28T13:33:25.794Z,23.75
2017-08-28T13:34:26.449Z,23.54
2017-08-28T13:35:26.477Z,23.5
2017-08-28T13:36:26.516Z,23.47
2017-08-28T13:37:41.134Z,23.39